Time;durP1;ratioP1;P1;durP2;ratioP2;P2;SDS_P1;SDS_P2;PMS_P1;PMS_P2;Temp;Humidity;BMP_temperature;BMP_pressure;BME280_temperature;BME280_humidity;BME280_pressure;Samples;Min_cycle;Max_cycle;Signal;HPM_P1;HPM_P2
2021/08/15 00:02:02;;;;;;;16.9;14.8;;;;;;;19.12;100;98641.89;;;;
2021/08/15 00:12:02;;;;;;;12.7;10.2;;;;;;;19.09;100;98638.72;;;;
2021/08/15 00:22:02;;;;;;;12.3;11.1;;;;;;;19.27;100;98627.31;;;;
2021/08/15 00:32:02;;;;;;;15.1;11.2;;;;;;;19.49;100;98629.31;;;;
2021/08/15 00:42:01;;;;;;;14.8;11;;;;;;;19.71;100;98633.19;;;;
2021/08/15 00:52:01;;;;;;;11.8;10.1;;;;;;;19.85;100;98626.01;;;;
2021/08/15 01:02:01;;;;;;;10.5;9.3;;;;;;;19.85;100;98639.68;;;;
2021/08/15 01:12:01;;;;;;;12.6;9.6;;;;;;;19.7;100;98628.87;;;;
2021/08/15 01:22:01;;;;;;;15.6;12.5;;;;;;;19.55;100;98638.77;;;;
2021/08/15 01:32:01;;;;;;;16.6;12.3;;;;;;;19.36;100;98641.55;;;;
2021/08/15 01:42:01;;;;;;;23;14.5;;;;;;;19.06;100;98636.71;;;;
2021/08/15 01:52:01;;;;;;;13.9;10.2;;;;;;;18.88;100;98630.11;;;;
2021/08/15 02:12:02;;;;;;;14.4;10.8;;;;;;;18.76;100;98624.02;;;;
2021/08/15 02:22:01;;;;;;;12.5;10.3;;;;;;;18.66;100;98624.6;;;;
2021/08/15 02:32:00;;;;;;;8.9;8;;;;;;;18.51;100;98616.13;;;;
2021/08/15 02:42:00;;;;;;;15.5;10.8;;;;;;;18.44;100;98617.88;;;;
2021/08/15 02:52:00;;;;;;;14.4;11.5;;;;;;;18.32;100;98607.11;;;;
2021/08/15 03:02:00;;;;;;;12.2;9.1;;;;;;;18.16;100;98606.35;;;;
2021/08/15 03:12:00;;;;;;;15;11.2;;;;;;;18.05;100;98593.27;;;;
2021/08/15 03:21:59;;;;;;;13.3;10.6;;;;;;;17.91;100;98590.23;;;;
2021/08/15 03:31:59;;;;;;;11.6;9.3;;;;;;;17.81;100;98588.05;;;;
2021/08/15 03:41:59;;;;;;;11.9;9.9;;;;;;;17.71;100;98585.88;;;;
2021/08/15 03:51:59;;;;;;;13.8;9.2;;;;;;;17.69;100;98582.72;;;;
2021/08/15 04:01:58;;;;;;;13.7;9.3;;;;;;;17.69;100;98581.92;;;;
2021/08/15 04:11:58;;;;;;;12.7;9.8;;;;;;;17.75;100;98581.3;;;;
2021/08/15 04:21:58;;;;;;;11.9;10.4;;;;;;;17.85;100;98580.75;;;;
2021/08/15 04:31:57;;;;;;;11.7;10.4;;;;;;;18.09;100;98580.5;;;;
2021/08/15 04:41:57;;;;;;;13.4;10.6;;;;;;;18.49;100;98572;;;;
2021/08/15 04:51:57;;;;;;;14.3;12.3;;;;;;;18.94;100;98565.88;;;;
2021/08/15 05:01:57;;;;;;;11.8;9.5;;;;;;;19.41;100;98565.52;;;;
2021/08/15 05:11:57;;;;;;;12.2;9.6;;;;;;;19.89;100;98569.38;;;;
2021/08/15 05:21:57;;;;;;;13.6;10.1;;;;;;;20.25;100;98565.19;;;;
2021/08/15 05:31:57;;;;;;;16;12.9;;;;;;;20.61;100;98573.88;;;;
2021/08/15 05:41:57;;;;;;;14.4;11.8;;;;;;;21.08;100;98565.75;;;;
2021/08/15 05:51:57;;;;;;;14.1;12;;;;;;;21.47;100;98561.44;;;;
2021/08/15 06:01:57;;;;;;;14.7;10.8;;;;;;;21.76;100;98556.17;;;;
2021/08/15 06:12:02;;;;;;;12.5;9.7;;;;;;;21.98;100;98561.42;;;;
2021/08/15 06:21:58;;;;;;;15.7;11.2;;;;;;;22.55;100;98561.7;;;;
2021/08/15 06:31:58;;;;;;;11.5;8.1;;;;;;;22.96;100;98551.23;;;;
2021/08/15 06:41:58;;;;;;;11.4;9.5;;;;;;;23.39;100;98554.82;;;;
2021/08/15 06:51:59;;;;;;;11.1;8.9;;;;;;;23.93;100;98553.6;;;;
2021/08/15 07:01:59;;;;;;;12.8;8.2;;;;;;;24.41;100;98548.36;;;;
2021/08/15 07:12:00;;;;;;;10.8;9.2;;;;;;;24.98;100;98544.16;;;;
2021/08/15 07:22:01;;;;;;;13.2;8.3;;;;;;;25.47;100;98548.52;;;;
2021/08/15 07:32:02;;;;;;;10.6;8.6;;;;;;;26.08;100;98539.66;;;;
2021/08/15 07:42:02;;;;;;;9.4;8.1;;;;;;;26.51;100;98538.79;;;;
2021/08/15 07:52:03;;;;;;;9.3;7.6;;;;;;;26.73;100;98535.72;;;;
2021/08/15 08:02:04;;;;;;;10.7;7.7;;;;;;;27.18;100;98525.98;;;;
2021/08/15 08:12:05;;;;;;;10.6;7.2;;;;;;;27.45;100;98521.24;;;;
2021/08/15 08:22:06;;;;;;;8.9;6.5;;;;;;;27.75;100;98525.84;;;;
2021/08/15 08:32:07;;;;;;;13.1;8.3;;;;;;;28.06;100;98520.13;;;;
2021/08/15 08:42:08;;;;;;;12.3;6.8;;;;;;;28.24;100;98515.05;;;;
2021/08/15 08:52:10;;;;;;;11;6.9;;;;;;;28.42;100;98507.15;;;;
2021/08/15 09:02:11;;;;;;;9.5;6.6;;;;;;;28.75;100;98494.16;;;;
2021/08/15 09:12:12;;;;;;;7.8;5.6;;;;;;;29.1;100;98482.23;;;;
2021/08/15 09:22:14;;;;;;;8.2;6.4;;;;;;;28.97;100;98484.92;;;;
2021/08/15 09:32:15;;;;;;;14.8;6.5;;;;;;;29.48;100;98472.16;;;;
2021/08/15 09:42:16;;;;;;;10.6;7.2;;;;;;;30.04;100;98451.63;;;;
2021/08/15 09:52:18;;;;;;;8.5;6.3;;;;;;;29.92;100;98453.17;;;;
2021/08/15 10:02:19;;;;;;;10.5;6.6;;;;;;;29.86;100;98444.57;;;;
2021/08/15 10:12:20;;;;;;;8.4;5.7;;;;;;;28.77;100;98441.81;;;;
2021/08/15 10:22:23;;;;;;;8.7;6.2;;;;;;;28.5;100;98447.53;;;;
2021/08/15 10:32:23;;;;;;;11.3;7.2;;;;;;;29.02;100;98436.42;;;;
2021/08/15 10:42:24;;;;;;;9.6;5.8;;;;;;;28.18;100;98436.38;;;;
2021/08/15 10:52:25;;;;;;;10.2;7.1;;;;;;;28.17;100;98426.5;;;;
2021/08/15 11:02:26;;;;;;;12.2;7;;;;;;;28.69;100;98407.91;;;;
2021/08/15 11:12:27;;;;;;;10.4;6.4;;;;;;;29.14;100;98398.88;;;;
2021/08/15 11:22:29;;;;;;;9.9;5.5;;;;;;;29.28;100;98393.77;;;;
2021/08/15 11:32:35;;;;;;;8.8;5.9;;;;;;;29.77;100;98397.17;;;;
2021/08/15 11:42:33;;;;;;;11.1;5.6;;;;;;;30.13;100;98385.81;;;;
2021/08/15 11:52:36;;;;;;;8.4;6.1;;;;;;;30.59;100;98392.76;;;;
2021/08/15 12:02:34;;;;;;;8.6;5.7;;;;;;;30.82;100;98386.83;;;;
2021/08/15 12:12:36;;;;;;;15.6;6;;;;;;;31.92;100;98381.02;;;;
2021/08/15 12:22:42;;;;;;;10.2;6.4;;;;;;;31.75;95.24707;98379.67;;;;
2021/08/15 12:32:39;;;;;;;10.5;6.7;;;;;;;31.02;97.49219;98360.78;;;;
2021/08/15 12:42:43;;;;;;;9.5;5.7;;;;;;;30.87;85.97168;98349.31;;;;
2021/08/15 12:52:50;;;;;;;12.1;7;;;;;;;31.28;84.92871;98337.95;;;;
2021/08/15 13:02:43;;;;;;;9.5;6.5;;;;;;;31.08;84.03027;98339.48;;;;
2021/08/15 13:12:45;;;;;;;12;6.5;;;;;;;31.09;80.5752;98318.77;;;;
2021/08/15 13:22:47;;;;;;;12;6.4;;;;;;;30.87;73.58008;98327.83;;;;
2021/08/15 13:32:48;;;;;;;10.6;6.1;;;;;;;31.29;71.56348;98319.24;;;;
2021/08/15 13:42:50;;;;;;;9.9;5.5;;;;;;;31.13;71.25488;98309.08;;;;
2021/08/15 13:52:51;;;;;;;8.9;5.6;;;;;;;31.16;70.61914;98293.47;;;;
2021/08/15 14:02:53;;;;;;;14.1;4.9;;;;;;;31.58;66.77051;98296.73;;;;
2021/08/15 14:12:54;;;;;;;8.2;6;;;;;;;31.67;66.65332;98291.98;;;;
2021/08/15 14:22:56;;;;;;;8.9;5.6;;;;;;;32.06;67.1377;98278.56;;;;
2021/08/15 14:32:57;;;;;;;8.5;5;;;;;;;31.85;67.53418;98285.73;;;;
2021/08/15 14:42:59;;;;;;;9.4;6.3;;;;;;;32;63.39746;98274.8;;;;
2021/08/15 14:53:00;;;;;;;9.9;6.3;;;;;;;32.3;62.87891;98257.27;;;;
2021/08/15 15:03:02;;;;;;;9.5;7.1;;;;;;;32.13;62.67871;98250.4;;;;
2021/08/15 15:13:03;;;;;;;11.4;6.1;;;;;;;32.45;68.40723;98249.88;;;;
2021/08/15 15:23:05;;;;;;;9.7;5.4;;;;;;;34.04;59.65332;98237.14;;;;
2021/08/15 15:33:07;;;;;;;8.7;5.1;;;;;;;35.63;51.31836;98236.58;;;;
2021/08/15 15:43:09;;;;;;;8.6;5.2;;;;;;;36.28;45.77344;98232.49;;;;
2021/08/15 15:53:11;;;;;;;7.8;5;;;;;;;36.65;42.79102;98236.35;;;;
2021/08/15 16:03:14;;;;;;;6.6;4.7;;;;;;;36.56;41.19922;98239.28;;;;
2021/08/15 16:13:15;;;;;;;6.5;4.2;;;;;;;36.87;40.95996;98249.88;;;;
2021/08/15 16:23:17;;;;;;;8.2;4.4;;;;;;;35.84;43.07715;98247.39;;;;
2021/08/15 16:33:20;;;;;;;10.2;6.3;;;;;;;33.3;52.02734;98240.61;;;;
2021/08/15 16:43:22;;;;;;;7.9;5.8;;;;;;;32.08;61.20801;98235.04;;;;
2021/08/15 16:53:23;;;;;;;10.6;6.2;;;;;;;30.72;72.29102;98229.35;;;;
2021/08/15 17:03:25;;;;;;;10.3;5.5;;;;;;;29.52;80.48828;98227.67;;;;
2021/08/15 17:13:26;;;;;;;9.1;5.4;;;;;;;28.88;87.48633;98215.59;;;;
2021/08/15 17:23:27;;;;;;;13.3;8.4;;;;;;;27.96;92.67578;98214.38;;;;
2021/08/15 17:33:28;;;;;;;13.3;7.9;;;;;;;27.57;100;98209.73;;;;
2021/08/15 17:43:30;;;;;;;14.4;8;;;;;;;27.1;100;98214.67;;;;
2021/08/15 17:53:34;;;;;;;10.8;7.3;;;;;;;26.34;100;98222;;;;
2021/08/15 18:03:38;;;;;;;11.2;8.4;;;;;;;25.77;100;98238.65;;;;
2021/08/15 18:13:34;;;;;;;11.2;9.4;;;;;;;25.09;100;98250.96;;;;
2021/08/15 18:23:34;;;;;;;15.8;10.4;;;;;;;24.57;100;98259.35;;;;
2021/08/15 18:33:34;;;;;;;10.3;8.6;;;;;;;24.11;100;98251.45;;;;
2021/08/15 18:43:34;;;;;;;14.3;9.5;;;;;;;23.66;100;98253.32;;;;
2021/08/15 18:53:35;;;;;;;10.2;8;;;;;;;23.39;100;98255.02;;;;
2021/08/15 19:03:35;;;;;;;11.9;8.7;;;;;;;23.25;100;98255.07;;;;
2021/08/15 19:13:35;;;;;;;11.9;8.7;;;;;;;22.97;100;98239.47;;;;
2021/08/15 19:23:36;;;;;;;8.9;6.1;;;;;;;22.83;100;98254.03;;;;
2021/08/15 19:33:36;;;;;;;19.4;16.1;;;;;;;22.57;100;98246.97;;;;
2021/08/15 19:43:37;;;;;;;12.1;9.2;;;;;;;22.36;100;98252.48;;;;
2021/08/15 19:53:37;;;;;;;35.8;26;;;;;;;22.05;100;98251.31;;;;
2021/08/15 20:03:38;;;;;;;13.9;11.3;;;;;;;21.73;100;98238.72;;;;
2021/08/15 20:13:37;;;;;;;11.4;8.5;;;;;;;21.42;100;98245.66;;;;
2021/08/15 20:23:38;;;;;;;9.4;6.6;;;;;;;21.12;100;98243.22;;;;
2021/08/15 20:33:38;;;;;;;12.8;7.4;;;;;;;20.87;100;98226.63;;;;
2021/08/15 20:43:43;;;;;;;12.1;7.8;;;;;;;20.58;100;98219.44;;;;
2021/08/15 20:53:38;;;;;;;12.1;6.7;;;;;;;20.44;100;98209.16;;;;
2021/08/15 21:03:38;;;;;;;11.9;8.2;;;;;;;20.19;100;98193.72;;;;
2021/08/15 21:13:38;;;;;;;10.9;8.3;;;;;;;19.98;100;98195.13;;;;
2021/08/15 21:23:38;;;;;;;10.8;6.9;;;;;;;19.8;100;98172.31;;;;
2021/08/15 21:33:38;;;;;;;10.2;7.2;;;;;;;19.63;100;98172.94;;;;
2021/08/15 21:43:39;;;;;;;10.8;8.1;;;;;;;19.55;100;98168.56;;;;
2021/08/15 21:53:38;;;;;;;10.4;7.5;;;;;;;19.43;100;98146.98;;;;
2021/08/15 22:03:38;;;;;;;15.7;8;;;;;;;19.28;100;98142.5;;;;
2021/08/15 22:13:37;;;;;;;11.4;7;;;;;;;19.16;100;98129.88;;;;
2021/08/15 22:23:37;;;;;;;13.4;8.7;;;;;;;19.02;100;98116.86;;;;
2021/08/15 22:33:37;;;;;;;12.5;9.7;;;;;;;18.88;100;98102.3;;;;
2021/08/15 22:43:38;;;;;;;13.6;9.5;;;;;;;18.78;100;98087.34;;;;
2021/08/15 22:53:37;;;;;;;15.4;9.7;;;;;;;18.74;100;98091.21;;;;
2021/08/15 23:03:37;;;;;;;14.6;11;;;;;;;18.82;100;98084.65;;;;
2021/08/15 23:13:36;;;;;;;15.5;9.8;;;;;;;18.84;100;98076.89;;;;
2021/08/15 23:23:36;;;;;;;13.6;8.7;;;;;;;18.84;100;98064.02;;;;
2021/08/15 23:33:36;;;;;;;13.2;8.8;;;;;;;18.84;100;98053.1;;;;
2021/08/15 23:43:36;;;;;;;14.3;10.1;;;;;;;18.96;100;98047.36;;;;
2021/08/15 23:53:35;;;;;;;11.3;9;;;;;;;19.02;100;98028.7;;;;
